createdAt,value
2023-01-15T00:00:28.676Z,97615.43
2023-01-15T00:03:19.711Z,97613.15
2023-01-15T00:05:50.212Z,97613.44
2023-01-15T00:08:20.452Z,97606.41
2023-01-15T00:10:51.180Z,97608.46
2023-01-15T00:13:21.485Z,97604.77
2023-01-15T00:15:51.644Z,97599.42
2023-01-15T00:18:22.066Z,97602.20
2023-01-15T00:21:00.769Z,97601.45
2023-01-15T00:23:49.407Z,97600.37
2023-01-15T00:26:41.669Z,97593.04
2023-01-15T00:29:12.349Z,97587.83
2023-01-15T00:31:43.791Z,97583.88
2023-01-15T00:34:14.205Z,97582.96
2023-01-15T00:36:44.687Z,97580.79
2023-01-15T00:39:15.226Z,97575.42
2023-01-15T00:41:45.790Z,97572.80
2023-01-15T00:44:16.441Z,97569.00
2023-01-15T00:46:47.098Z,97566.80
2023-01-15T00:49:18.128Z,97569.79
2023-01-15T00:51:48.574Z,97563.10
2023-01-15T00:54:18.788Z,97563.40
2023-01-15T00:56:51.708Z,97561.79
2023-01-15T00:59:22.137Z,97557.35
2023-01-15T01:01:52.809Z,97556.70
2023-01-15T01:04:23.098Z,97555.14
2023-01-15T01:06:53.784Z,97554.04
2023-01-15T01:09:24.092Z,97551.84
2023-01-15T01:11:56.912Z,97547.84
2023-01-15T01:14:27.879Z,97542.30
2023-01-15T01:16:58.460Z,97539.65
2023-01-15T01:19:29.228Z,97535.02
2023-01-15T01:21:59.729Z,97538.20
2023-01-15T01:24:30.690Z,97538.15
2023-01-15T01:27:01.005Z,97535.26
2023-01-15T01:29:31.822Z,97532.20
2023-01-15T01:32:02.222Z,97534.48
2023-01-15T01:34:33.666Z,97534.45
2023-01-15T01:37:04.182Z,97534.81
2023-01-15T01:39:34.565Z,97533.27
2023-01-15T01:42:06.699Z,97528.55
2023-01-15T01:45:11.360Z,97527.73
2023-01-15T01:47:42.174Z,97529.39
2023-01-15T01:50:17.263Z,97528.79
2023-01-15T01:52:50.412Z,97529.54
2023-01-15T01:55:23.269Z,97523.91
2023-01-15T01:57:57.197Z,97522.67
2023-01-15T02:00:27.712Z,97519.09
2023-01-15T02:02:58.956Z,97516.42
2023-01-15T02:05:34.019Z,97519.48
2023-01-15T02:08:04.529Z,97518.50
2023-01-15T02:10:35.075Z,97520.77
2023-01-15T02:13:08.844Z,97524.60
2023-01-15T02:15:41.915Z,97524.60
2023-01-15T02:18:17.958Z,97527.92
2023-01-15T02:20:51.619Z,97526.84
2023-01-15T02:23:39.597Z,97522.38
2023-01-15T02:26:45.441Z,97521.47
2023-01-15T02:29:18.897Z,97526.46
2023-01-15T02:31:52.651Z,97533.54
2023-01-15T02:34:26.061Z,97533.05
2023-01-15T02:37:04.618Z,97536.10
2023-01-15T02:39:36.654Z,97537.19
2023-01-15T02:42:08.621Z,97539.42
2023-01-15T02:44:41.131Z,97538.52
2023-01-15T02:47:12.170Z,97537.54
2023-01-15T02:49:43.227Z,97537.92
2023-01-15T02:52:14.125Z,97539.12
2023-01-15T02:54:47.462Z,97538.39
2023-01-15T02:57:18.924Z,97540.52
2023-01-15T02:59:50.955Z,97544.08
2023-01-15T03:02:24.164Z,97546.73
2023-01-15T03:04:59.189Z,97549.08
2023-01-15T03:07:36.032Z,97550.02
2023-01-15T03:10:08.165Z,97547.17
2023-01-15T03:12:59.551Z,97550.66
2023-01-15T03:16:03.961Z,97552.53
2023-01-15T03:18:38.116Z,97553.68
2023-01-15T03:21:11.091Z,97556.68
2023-01-15T03:26:33.805Z,97561.09
2023-01-15T03:29:08.410Z,97559.55
2023-01-15T03:31:39.092Z,97566.50
2023-01-15T03:34:09.746Z,97570.81
2023-01-15T03:36:40.602Z,97570.83
2023-01-15T03:39:10.910Z,97569.66
2023-01-15T03:41:49.218Z,97566.95
2023-01-15T03:44:27.123Z,97566.17
2023-01-15T03:47:04.983Z,97571.08
2023-01-15T03:49:43.402Z,97572.63
2023-01-15T03:52:19.979Z,97570.95
2023-01-15T03:54:53.249Z,97569.66
2023-01-15T03:57:30.289Z,97568.10
2023-01-15T04:00:02.115Z,97572.80
2023-01-15T04:02:33.008Z,97573.74
2023-01-15T04:05:04.073Z,97575.64
2023-01-15T04:07:35.197Z,97576.05
2023-01-15T04:10:10.096Z,97577.39
2023-01-15T04:12:40.445Z,97575.66
2023-01-15T04:15:13.316Z,97571.19
2023-01-15T04:17:43.971Z,97571.18
2023-01-15T04:20:15.047Z,97571.05
2023-01-15T04:22:45.420Z,97572.02
2023-01-15T04:25:16.257Z,97579.62
2023-01-15T04:27:46.689Z,97583.75
2023-01-15T04:30:19.527Z,97582.52
2023-01-15T04:32:51.401Z,97587.41
2023-01-15T04:35:22.866Z,97587.41
2023-01-15T04:37:56.449Z,97586.49
2023-01-15T04:40:44.789Z,97587.62
2023-01-15T04:43:33.115Z,97583.64
2023-01-15T04:46:03.852Z,97585.24
2023-01-15T04:48:34.292Z,97587.91
2023-01-15T04:51:06.697Z,97587.56
2023-01-15T04:53:37.352Z,97592.80
2023-01-15T04:56:10.985Z,97592.23
2023-01-15T04:58:41.829Z,97595.64
2023-01-15T05:01:14.277Z,97599.39
2023-01-15T05:03:44.818Z,97602.11
2023-01-15T05:06:15.833Z,97599.38
2023-01-15T05:08:46.631Z,97601.55
2023-01-15T05:11:17.140Z,97610.60
2023-01-15T05:13:47.740Z,97610.96
2023-01-15T05:16:19.658Z,97613.09
2023-01-15T05:18:50.298Z,97612.98
2023-01-15T05:21:22.333Z,97613.02
2023-01-15T05:23:53.620Z,97619.84
2023-01-15T05:26:25.060Z,97617.30
2023-01-15T05:28:56.681Z,97614.04
2023-01-15T05:31:28.479Z,97617.05
2023-01-15T05:33:59.615Z,97620.82
2023-01-15T05:36:31.523Z,97620.89
2023-01-15T05:39:02.673Z,97612.73
2023-01-15T05:41:52.562Z,97613.60
2023-01-15T05:44:25.695Z,97610.83
2023-01-15T05:46:56.853Z,97611.60
2023-01-15T05:49:29.757Z,97616.13
2023-01-15T05:52:01.093Z,97617.95
2023-01-15T05:54:33.884Z,97619.96
2023-01-15T05:57:04.674Z,97621.93
2023-01-15T05:59:34.568Z,97619.95
2023-01-15T06:02:05.506Z,97619.59
2023-01-15T06:04:35.914Z,97619.45
2023-01-15T06:07:06.522Z,97622.13
2023-01-15T06:09:37.141Z,97622.95
2023-01-15T06:12:08.555Z,97628.13
2023-01-15T06:14:39.019Z,97627.45
2023-01-15T06:17:09.167Z,97630.61
2023-01-15T06:19:39.487Z,97633.03
2023-01-15T06:22:10.986Z,97632.91
2023-01-15T06:24:41.776Z,97624.92
2023-01-15T06:27:13.252Z,97630.36
2023-01-15T06:29:43.347Z,97632.70
2023-01-15T06:32:14.115Z,97632.31
2023-01-15T06:34:45.246Z,97630.02
2023-01-15T06:37:14.250Z,97626.80
2023-01-15T06:39:45.438Z,97626.54
2023-01-15T06:42:32.129Z,97626.05
2023-01-15T06:45:20.389Z,97628.67
2023-01-15T06:47:50.870Z,97629.77
2023-01-15T06:50:21.632Z,97626.67
2023-01-15T06:52:52.462Z,97626.68
2023-01-15T06:55:23.932Z,97621.27
2023-01-15T06:57:54.382Z,97618.41
2023-01-15T07:00:24.881Z,97614.08
2023-01-15T07:02:54.160Z,97609.33
2023-01-15T07:05:24.468Z,97608.04
2023-01-15T07:07:54.846Z,97607.61
2023-01-15T07:10:25.474Z,97600.08
2023-01-15T07:12:55.960Z,97599.67
2023-01-15T07:15:26.623Z,97596.82
2023-01-15T07:17:57.865Z,97593.09
2023-01-15T07:20:28.458Z,97588.68
2023-01-15T07:22:58.916Z,97586.02
2023-01-15T07:25:29.438Z,97585.13
2023-01-15T07:27:59.782Z,97582.45
2023-01-15T07:30:32.235Z,97580.88
2023-01-15T07:33:02.979Z,97576.98
2023-01-15T07:35:37.137Z,97575.19
2023-01-15T07:38:08.670Z,97574.13
2023-01-15T07:40:39.785Z,97572.45
2023-01-15T07:43:30.925Z,97563.77
2023-01-15T07:46:21.806Z,97563.99
2023-01-15T07:49:09.886Z,97555.96
2023-01-15T07:51:40.400Z,97550.95
2023-01-15T07:54:11.625Z,97542.13
2023-01-15T07:56:42.301Z,97537.59
2023-01-15T07:59:15.741Z,97532.23
2023-01-15T08:01:50.129Z,97525.79
2023-01-15T08:04:21.574Z,97521.34
2023-01-15T08:06:51.931Z,97521.20
2023-01-15T08:09:22.367Z,97514.86
2023-01-15T08:12:11.705Z,97508.11
2023-01-15T08:15:00.106Z,97507.38
2023-01-15T08:17:29.038Z,97503.63
2023-01-15T08:19:59.584Z,97502.80
2023-01-15T08:22:29.932Z,97499.73
2023-01-15T08:25:00.636Z,97497.41
2023-01-15T08:27:32.712Z,97489.88
2023-01-15T08:30:04.553Z,97480.39
2023-01-15T08:32:35.019Z,97472.95
2023-01-15T08:35:06.556Z,97469.55
2023-01-15T08:37:37.049Z,97461.58
2023-01-15T08:40:09.763Z,97459.79
2023-01-15T08:42:40.523Z,97457.73
2023-01-15T08:45:10.466Z,97452.35
2023-01-15T08:47:40.755Z,97450.92
2023-01-15T08:50:13.114Z,97446.09
2023-01-15T08:52:43.529Z,97442.06
2023-01-15T08:55:13.969Z,97437.80
2023-01-15T08:57:44.352Z,97436.39
2023-01-15T09:00:17.729Z,97433.14
2023-01-15T09:02:50.107Z,97428.13
2023-01-15T09:05:21.148Z,97420.89
2023-01-15T09:07:51.369Z,97417.89
2023-01-15T09:10:21.869Z,97412.20
2023-01-15T09:12:52.353Z,97407.45
2023-01-15T09:15:22.586Z,97400.89
2023-01-15T09:17:52.826Z,97396.79
2023-01-15T09:20:23.416Z,97394.02
2023-01-15T09:22:54.574Z,97392.61
2023-01-15T09:25:25.249Z,97391.93
2023-01-15T09:27:58.545Z,97397.67
2023-01-15T09:30:29.558Z,97395.69
2023-01-15T09:33:02.717Z,97390.27
2023-01-15T09:35:33.559Z,97386.54
2023-01-15T09:38:04.179Z,97387.43
2023-01-15T09:40:49.436Z,97383.31
2023-01-15T09:43:51.161Z,97384.84
2023-01-15T09:46:29.181Z,97379.91
2023-01-15T09:49:12.147Z,97381.92
2023-01-15T09:51:49.795Z,97380.90
2023-01-15T09:54:29.602Z,97378.69
2023-01-15T09:57:02.391Z,97369.42
2023-01-15T09:59:38.247Z,97363.67
2023-01-15T10:02:20.469Z,97363.06
2023-01-15T10:04:54.745Z,97357.70
2023-01-15T10:07:31.021Z,97351.15
2023-01-15T10:10:06.075Z,97348.63
2023-01-15T10:12:41.010Z,97343.79
2023-01-15T10:15:24.395Z,97343.32
2023-01-15T10:17:59.354Z,97340.63
2023-01-15T10:20:57.371Z,97340.55
2023-01-15T10:23:42.467Z,97333.69
2023-01-15T10:26:18.639Z,97328.15
2023-01-15T10:29:01.286Z,97326.90
2023-01-15T10:31:51.389Z,97327.76
2023-01-15T10:35:02.936Z,97325.20
2023-01-15T10:37:42.218Z,97321.98
2023-01-15T10:40:43.726Z,97320.45
2023-01-15T10:43:19.182Z,97318.19
2023-01-15T10:45:59.835Z,97321.04
2023-01-15T10:48:35.688Z,97318.02
2023-01-15T10:51:16.043Z,97321.52
2023-01-15T10:53:50.517Z,97314.52
2023-01-15T10:56:29.823Z,97317.66
2023-01-15T10:59:27.084Z,97318.17
2023-01-15T11:02:23.309Z,97312.65
2023-01-15T11:04:55.846Z,97310.41
2023-01-15T11:07:32.684Z,97307.27
2023-01-15T11:10:05.797Z,97303.27
2023-01-15T11:12:55.565Z,97306.52
2023-01-15T11:15:45.666Z,97305.20
2023-01-15T11:18:39.384Z,97300.20
2023-01-15T11:21:14.684Z,97300.61
2023-01-15T11:23:45.720Z,97298.27
2023-01-15T11:26:21.442Z,97302.98
2023-01-15T11:28:52.544Z,97301.31
2023-01-15T11:31:30.986Z,97305.16
2023-01-15T11:34:04.767Z,97303.38
2023-01-15T11:36:35.630Z,97295.23
2023-01-15T11:39:06.215Z,97293.60
2023-01-15T11:41:51.690Z,97293.39
2023-01-15T11:44:41.270Z,97287.55
2023-01-15T11:47:31.590Z,97281.27
2023-01-15T11:50:20.203Z,97281.27
2023-01-15T11:52:54.554Z,97278.63
2023-01-15T11:55:28.582Z,97278.91
2023-01-15T11:58:00.349Z,97283.69
2023-01-15T12:00:36.801Z,97282.55
2023-01-15T12:03:15.846Z,97281.40
2023-01-15T12:05:54.397Z,97282.88
2023-01-15T12:08:37.944Z,97283.80
2023-01-15T12:11:26.781Z,97283.06
2023-01-15T12:14:09.130Z,97281.63
2023-01-15T12:16:48.336Z,97289.18
2023-01-15T12:19:26.378Z,97285.40
2023-01-15T12:22:14.419Z,97282.05
2023-01-15T12:25:05.047Z,97285.77
2023-01-15T12:27:55.193Z,97292.58
2023-01-15T12:30:30.372Z,97296.11
2023-01-15T12:33:09.673Z,97295.77
2023-01-15T12:35:43.973Z,97289.23
2023-01-15T12:38:21.607Z,97288.38
2023-01-15T12:40:55.073Z,97284.61
2023-01-15T12:43:46.124Z,97287.50
2023-01-15T12:46:20.459Z,97282.80
2023-01-15T12:48:59.833Z,97282.41
2023-01-15T12:51:35.502Z,97287.28
2023-01-15T12:54:11.771Z,97284.79
2023-01-15T12:56:51.652Z,97286.92
2023-01-15T12:59:25.321Z,97282.44
2023-01-15T13:02:03.909Z,97284.04
2023-01-15T13:04:45.107Z,97284.44
2023-01-15T13:07:20.078Z,97284.77
2023-01-15T13:09:58.331Z,97285.19
2023-01-15T13:12:30.711Z,97286.75
2023-01-15T13:15:01.663Z,97284.27
2023-01-15T13:17:32.885Z,97290.27
2023-01-15T13:20:22.190Z,97296.59
2023-01-15T13:22:59.056Z,97291.95
2023-01-15T13:25:49.802Z,97296.24
2023-01-15T13:28:35.209Z,97297.94
2023-01-15T13:31:12.854Z,97298.55
2023-01-15T13:33:44.991Z,97299.21
2023-01-15T13:36:21.569Z,97299.25
2023-01-15T13:38:51.931Z,97301.69
2023-01-15T13:41:39.876Z,97300.94
2023-01-15T13:44:18.133Z,97296.43
2023-01-15T13:46:50.324Z,97292.64
2023-01-15T13:49:31.882Z,97296.89
2023-01-15T13:52:04.253Z,97295.30
2023-01-15T13:54:37.357Z,97300.02
2023-01-15T13:57:25.911Z,97297.41
2023-01-15T13:59:56.946Z,97298.84
2023-01-15T14:02:30.109Z,97296.17
2023-01-15T14:05:01.134Z,97301.41
2023-01-15T14:07:34.218Z,97300.24
2023-01-15T14:10:28.068Z,97295.11
2023-01-15T14:13:14.484Z,97297.61
2023-01-15T14:15:51.621Z,97292.23
2023-01-15T14:18:45.650Z,97297.19
2023-01-15T14:21:31.573Z,97301.88
2023-01-15T14:24:58.112Z,97303.13
2023-01-15T14:27:54.393Z,97298.17
2023-01-15T14:30:36.526Z,97302.09
2023-01-15T14:33:17.095Z,97305.98
2023-01-15T14:35:48.823Z,97308.02
2023-01-15T14:38:21.884Z,97307.97
2023-01-15T14:40:59.310Z,97306.43
2023-01-15T14:43:32.065Z,97310.66
2023-01-15T14:46:15.453Z,97319.39
2023-01-15T14:48:45.985Z,97319.61
2023-01-15T14:51:19.288Z,97320.76
2023-01-15T14:53:51.704Z,97319.53
2023-01-15T14:56:26.083Z,97324.08
2023-01-15T14:59:00.755Z,97319.80
2023-01-15T15:01:40.105Z,97321.27
2023-01-15T15:04:23.711Z,97321.10
2023-01-15T15:07:01.285Z,97322.14
2023-01-15T15:09:37.241Z,97327.73
2023-01-15T15:12:26.846Z,97325.43
2023-01-15T15:15:04.326Z,97327.56
2023-01-15T15:17:41.924Z,97324.58
2023-01-15T15:20:25.687Z,97327.73
2023-01-15T15:22:59.593Z,97325.57
2023-01-15T15:25:31.665Z,97326.33
2023-01-15T15:28:07.153Z,97330.23
2023-01-15T15:30:41.472Z,97333.63
2023-01-15T15:33:18.712Z,97336.24
2023-01-15T15:35:51.715Z,97331.75
2023-01-15T15:38:23.406Z,97335.52
2023-01-15T15:40:57.283Z,97338.23
2023-01-15T15:43:48.362Z,97337.19
2023-01-15T15:46:44.965Z,97337.81
2023-01-15T15:49:15.884Z,97338.17
2023-01-15T15:51:48.321Z,97339.77
2023-01-15T15:54:21.206Z,97338.84
2023-01-15T15:56:57.544Z,97340.55
2023-01-15T15:59:39.045Z,97345.15
2023-01-15T16:02:19.559Z,97340.79
2023-01-15T16:04:54.593Z,97343.73
2023-01-15T16:07:27.496Z,97344.63
2023-01-15T16:10:00.407Z,97349.09
2023-01-15T16:12:34.810Z,97350.14
2023-01-15T16:15:08.444Z,97347.16
2023-01-15T16:17:40.394Z,97349.92
2023-01-15T16:20:15.173Z,97349.20
2023-01-15T16:22:49.738Z,97347.75
2023-01-15T16:25:33.349Z,97354.05
2023-01-15T16:28:04.060Z,97357.54
2023-01-15T16:30:35.560Z,97357.70
2023-01-15T16:33:08.220Z,97358.67
2023-01-15T16:35:39.108Z,97359.33
2023-01-15T16:38:19.332Z,97358.44
2023-01-15T16:40:49.859Z,97359.29
2023-01-15T16:43:22.271Z,97361.21
2023-01-15T16:46:04.496Z,97364.84
2023-01-15T16:48:37.941Z,97368.66
2023-01-15T16:51:32.263Z,97368.76
2023-01-15T16:54:06.309Z,97368.92
2023-01-15T16:56:51.037Z,97372.59
2023-01-15T17:00:02.293Z,97373.05
2023-01-15T17:02:51.855Z,97372.10
2023-01-15T17:05:27.378Z,97372.59
2023-01-15T17:07:58.395Z,97372.23
2023-01-15T17:10:31.288Z,97378.71
2023-01-15T17:13:02.808Z,97380.81
2023-01-15T17:15:43.508Z,97384.59
2023-01-15T17:18:28.232Z,97384.81
2023-01-15T17:20:59.115Z,97383.25
2023-01-15T17:23:32.537Z,97388.58
2023-01-15T17:26:03.208Z,97392.23
2023-01-15T17:28:33.622Z,97390.50
2023-01-15T17:31:05.487Z,97390.52
2023-01-15T17:33:39.046Z,97385.38
2023-01-15T17:36:12.323Z,97387.69
2023-01-15T17:38:44.805Z,97389.59
2023-01-15T17:41:17.381Z,97393.08
2023-01-15T17:43:47.993Z,97391.73
2023-01-15T17:46:19.941Z,97392.05
2023-01-15T17:48:51.239Z,97393.05
2023-01-15T17:51:21.669Z,97394.86
2023-01-15T17:53:52.681Z,97392.89
2023-01-15T17:56:42.052Z,97397.31
2023-01-15T17:59:37.390Z,97400.08
2023-01-15T18:02:34.183Z,97395.91
2023-01-15T18:05:24.144Z,97396.67
2023-01-15T18:07:58.877Z,97399.29
2023-01-15T18:10:29.857Z,97404.33
2023-01-15T18:13:01.956Z,97402.89
2023-01-15T18:15:36.358Z,97405.51
2023-01-15T18:18:07.602Z,97404.96
2023-01-15T18:20:38.672Z,97404.55
2023-01-15T18:23:09.879Z,97402.30
2023-01-15T18:25:45.963Z,97394.83
2023-01-15T18:28:17.853Z,97395.25
2023-01-15T18:30:49.587Z,97397.17
2023-01-15T18:33:20.521Z,97397.59
2023-01-15T18:35:49.859Z,97399.80
2023-01-15T18:38:21.614Z,97397.56
2023-01-15T18:40:50.728Z,97398.95
2023-01-15T18:43:40.075Z,97397.25
2023-01-15T18:46:32.554Z,97395.84
2023-01-15T18:49:05.581Z,97396.16
2023-01-15T18:51:37.033Z,97393.56
2023-01-15T18:54:10.034Z,97394.56
2023-01-15T18:56:42.980Z,97394.52
2023-01-15T18:59:20.422Z,97395.47
2023-01-15T19:01:51.621Z,97401.82
2023-01-15T19:04:25.090Z,97400.63
2023-01-15T19:06:56.640Z,97403.40
2023-01-15T19:09:27.935Z,97404.90
2023-01-15T19:11:58.595Z,97406.92
2023-01-15T19:14:46.571Z,97404.68
2023-01-15T19:17:37.470Z,97405.60
2023-01-15T19:20:11.796Z,97412.31
2023-01-15T19:23:01.395Z,97415.09
2023-01-15T19:25:37.230Z,97419.19
2023-01-15T19:28:09.644Z,97416.40
2023-01-15T19:30:41.646Z,97419.67
2023-01-15T19:33:12.637Z,97419.84
2023-01-15T19:35:43.860Z,97419.75
2023-01-15T19:38:14.801Z,97418.61
2023-01-15T19:40:45.692Z,97416.23
2023-01-15T19:43:34.337Z,97417.61
2023-01-15T19:46:23.784Z,97418.20
2023-01-15T19:49:13.859Z,97420.27
2023-01-15T19:52:02.150Z,97425.42
2023-01-15T19:55:04.813Z,97425.94
2023-01-15T19:57:35.857Z,97422.64
2023-01-15T20:00:07.202Z,97424.59
2023-01-15T20:02:38.682Z,97432.17
2023-01-15T20:05:10.497Z,97437.10
2023-01-15T20:07:42.093Z,97436.69
2023-01-15T20:10:15.233Z,97442.84
2023-01-15T20:13:04.509Z,97444.27
2023-01-15T20:15:36.475Z,97450.08
2023-01-15T20:18:07.889Z,97444.73
2023-01-15T20:20:39.516Z,97451.00
2023-01-15T20:23:10.288Z,97453.95
2023-01-15T20:25:42.167Z,97458.64
2023-01-15T20:28:13.423Z,97456.38
2023-01-15T20:30:46.615Z,97455.58
2023-01-15T20:33:17.649Z,97458.69
2023-01-15T20:35:52.596Z,97461.08
2023-01-15T20:38:24.352Z,97460.10
2023-01-15T20:41:15.400Z,97461.58
2023-01-15T20:44:03.913Z,97461.52
2023-01-15T20:46:35.010Z,97463.52
2023-01-15T20:49:23.873Z,97464.91
2023-01-15T20:51:56.357Z,97460.85
2023-01-15T20:54:30.487Z,97459.18
2023-01-15T20:57:01.904Z,97460.27
2023-01-15T20:59:32.958Z,97463.05
2023-01-15T21:02:02.534Z,97460.98
2023-01-15T21:04:41.430Z,97460.35
2023-01-15T21:07:12.494Z,97460.04
2023-01-15T21:09:43.967Z,97459.37
2023-01-15T21:12:14.380Z,97455.70
2023-01-15T21:14:45.560Z,97454.55
2023-01-15T21:17:17.422Z,97459.15
2023-01-15T21:19:49.367Z,97460.21
2023-01-15T21:22:18.515Z,97458.77
2023-01-15T21:24:51.396Z,97457.02
2023-01-15T21:27:21.820Z,97458.89
2023-01-15T21:29:52.466Z,97455.61
2023-01-15T21:32:31.582Z,97459.94
2023-01-15T21:35:02.538Z,97460.22
2023-01-15T21:37:31.663Z,97459.19
2023-01-15T21:40:00.863Z,97461.91
2023-01-15T21:43:00.925Z,97464.03
2023-01-15T21:45:32.393Z,97462.05
2023-01-15T21:48:03.219Z,97464.95
2023-01-15T21:50:35.393Z,97462.82
2023-01-15T21:53:06.294Z,97465.11
2023-01-15T21:55:37.066Z,97463.66
2023-01-15T21:58:07.689Z,97463.06
2023-01-15T22:00:39.115Z,97463.61
2023-01-15T22:03:12.325Z,97460.42
2023-01-15T22:05:42.759Z,97464.25
2023-01-15T22:08:13.892Z,97464.10
2023-01-15T22:10:44.752Z,97465.40
2023-01-15T22:13:15.310Z,97465.41
2023-01-15T22:15:45.870Z,97466.83
2023-01-15T22:18:16.242Z,97463.21
2023-01-15T22:20:46.853Z,97464.29
2023-01-15T22:23:17.488Z,97465.90
2023-01-15T22:25:48.123Z,97464.23
2023-01-15T22:28:22.591Z,97465.11
2023-01-15T22:30:54.477Z,97465.65
2023-01-15T22:33:25.014Z,97463.80
2023-01-15T22:36:04.364Z,97464.31
2023-01-15T22:38:35.308Z,97464.60
2023-01-15T22:41:04.925Z,97463.05
2023-01-15T22:43:36.211Z,97463.84
2023-01-15T22:46:15.111Z,97466.50
2023-01-15T22:48:46.405Z,97468.80
2023-01-15T22:51:16.990Z,97464.77
2023-01-15T22:53:47.599Z,97469.48
2023-01-15T22:56:18.160Z,97468.83
2023-01-15T22:58:48.540Z,97470.45
2023-01-15T23:01:19.808Z,97469.80
2023-01-15T23:03:50.459Z,97469.25
2023-01-15T23:06:24.288Z,97470.92
2023-01-15T23:08:59.526Z,97472.66
2023-01-15T23:11:31.387Z,97472.52
2023-01-15T23:14:02.294Z,97470.65
2023-01-15T23:16:33.313Z,97467.71
2023-01-15T23:19:02.631Z,97467.38
2023-01-15T23:21:34.185Z,97471.79
2023-01-15T23:24:08.160Z,97472.09
2023-01-15T23:26:39.177Z,97466.86
2023-01-15T23:29:09.751Z,97469.15
2023-01-15T23:31:41.496Z,97466.17
2023-01-15T23:34:12.641Z,97463.90
2023-01-15T23:36:42.958Z,97462.57
2023-01-15T23:39:16.123Z,97455.98
2023-01-15T23:42:04.695Z,97456.19
2023-01-15T23:44:52.792Z,97454.73
2023-01-15T23:47:23.167Z,97452.38
2023-01-15T23:49:55.178Z,97446.95
2023-01-15T23:52:29.546Z,97446.50
2023-01-15T23:55:00.454Z,97443.40
2023-01-15T23:57:29.769Z,97448.58
